Time;durP1;ratioP1;P1;durP2;ratioP2;P2;SDS_P1;SDS_P2;PMS_P1;PMS_P2;Temp;Humidity;BMP_temperature;BMP_pressure;BME280_temperature;BME280_humidity;BME280_pressure;Samples;Min_cycle;Max_cycle;Signal;HPM_P1;HPM_P2
2023/04/10 00:00:20;;;;;;;1999.90;999.90;;;8.30;99.90;;;;;;5073534;28;20465;-74
2023/04/10 00:02:48;;;;;;;1999.90;999.90;;;8.20;99.90;;;;;;5064133;28;20433;-74
2023/04/10 00:05:15;;;;;;;1999.90;999.90;;;8.10;99.90;;;;;;5073316;28;20411;-76
2023/04/10 00:07:41;;;;;;;1999.90;999.90;;;8.00;99.90;;;;;;5073724;28;20403;-74
2023/04/10 00:10:09;;;;;;;1999.90;999.90;;;7.90;99.90;;;;;;5073474;28;20403;-72
2023/04/10 00:12:36;;;;;;;1999.90;999.90;;;7.90;99.90;;;;;;5072142;28;20767;-74
2023/04/10 00:15:03;;;;;;;1999.90;999.90;;;7.90;99.90;;;;;;5064980;28;20680;-74
2023/04/10 00:17:31;;;;;;;1999.90;999.90;;;7.90;99.90;;;;;;5068553;28;20507;-74
2023/04/10 00:19:59;;;;;;;1999.90;999.90;;;7.90;99.90;;;;;;5069229;28;20426;-75
2023/04/10 00:22:26;;;;;;;1999.90;999.90;;;7.90;99.90;;;;;;5073167;28;20439;-75
2023/04/10 00:24:52;;;;;;;1999.90;999.90;;;8.00;99.90;;;;;;5073251;28;20465;-71
2023/04/10 00:27:19;;;;;;;1999.90;999.90;;;8.00;99.90;;;;;;5071954;28;20427;-74
2023/04/10 00:29:46;;;;;;;1999.90;999.90;;;8.00;99.90;;;;;;5072951;28;20405;-75
2023/04/10 00:32:13;;;;;;;1999.90;999.90;;;8.00;99.90;;;;;;5073210;28;20404;-74
2023/04/10 00:34:41;;;;;;;1999.90;999.90;;;7.90;99.90;;;;;;5073203;28;20455;-74
2023/04/10 00:37:08;;;;;;;1999.90;999.90;;;7.90;99.90;;;;;;5073016;28;20833;-74
2023/04/10 00:39:34;;;;;;;1999.90;999.90;;;7.80;99.90;;;;;;5072784;28;20423;-74
2023/04/10 00:42:01;;;;;;;1999.90;999.90;;;7.70;99.90;;;;;;5063438;28;20969;-74
2023/04/10 00:44:28;;;;;;;1999.90;999.90;;;7.70;99.90;;;;;;5073036;28;20533;-74
2023/04/10 00:46:54;;;;;;;1999.90;999.90;;;7.60;99.90;;;;;;5073281;28;20569;-74
2023/04/10 00:49:21;;;;;;;1999.90;999.90;;;7.50;99.90;;;;;;5070857;28;20816;-75
2023/04/10 00:51:49;;;;;;;1999.90;999.90;;;7.50;99.90;;;;;;5061205;28;20477;-74
2023/04/10 00:54:16;;;;;;;1999.90;999.90;;;7.30;99.90;;;;;;5072710;28;20411;-74
2023/04/10 00:56:45;;;;;;;1999.90;999.90;;;7.30;99.90;;;;;;5072674;28;20430;-74
2023/04/10 00:59:12;;;;;;;1999.90;999.90;;;7.40;99.90;;;;;;5072378;28;20411;-74
2023/04/10 01:01:39;;;;;;;1999.90;999.90;;;7.40;99.90;;;;;;5071455;28;20947;-75
2023/04/10 01:04:06;;;;;;;1999.90;999.90;;;7.40;99.90;;;;;;5070980;28;20432;-72
2023/04/10 01:06:47;;;;;;;1999.90;999.90;;;7.40;99.90;;;;;;5065154;28;20447;-74
2023/04/10 01:09:26;;;;;;;1999.90;999.90;;;7.30;99.90;;;;;;5070632;28;20423;-74
2023/04/10 01:11:58;;;;;;;1999.90;999.90;;;7.20;99.90;;;;;;5072126;28;20411;-74
2023/04/10 01:14:33;;;;;;;1999.90;999.90;;;6.90;99.90;;;;;;5072561;28;20434;-76
2023/04/10 01:17:05;;;;;;;1999.90;999.90;;;6.70;99.90;;;;;;5072402;28;20494;-74
2023/04/10 01:19:48;;;;;;;1999.90;999.90;;;6.50;99.90;;;;;;5071259;28;20474;-75
2023/04/10 01:22:17;;;;;;;1999.90;999.90;;;6.50;99.90;;;;;;5071797;28;20931;-77
2023/04/10 01:25:02;;;;;;;1999.90;999.90;;;6.60;99.90;;;;;;5072629;28;20464;-75
2023/04/10 01:27:49;;;;;;;1999.90;999.90;;;6.80;99.90;;;;;;5071872;28;20446;-74
2023/04/10 01:30:20;;;;;;;1999.90;999.90;;;7.20;99.90;;;;;;5065678;28;20414;-76
2023/04/10 01:32:49;;;;;;;1999.90;999.90;;;7.50;99.90;;;;;;5074046;28;20400;-74
2023/04/10 01:35:17;;;;;;;1999.90;999.90;;;7.70;99.90;;;;;;5073121;28;20765;-74
2023/04/10 01:37:48;;;;;;;1999.90;999.90;;;7.80;99.90;;;;;;5065227;28;20403;-76
2023/04/10 01:40:17;;;;;;;1999.90;999.90;;;8.00;99.90;;;;;;5073617;28;20477;-74
2023/04/10 01:42:48;;;;;;;1999.90;999.90;;;8.00;99.90;;;;;;5073518;28;20910;-76
2023/04/10 01:45:19;;;;;;;1999.90;999.90;;;8.00;99.90;;;;;;5072803;28;20408;-75
2023/04/10 01:47:47;;;;;;;1999.90;999.90;;;8.00;99.90;;;;;;5071754;28;20954;-75
2023/04/10 01:50:15;;;;;;;1999.90;999.90;;;7.90;99.90;;;;;;5070330;28;20536;-75
2023/04/10 01:52:42;;;;;;;1999.90;999.90;;;7.80;99.90;;;;;;5072152;28;20465;-74
2023/04/10 01:55:10;;;;;;;1999.90;999.90;;;7.20;99.90;;;;;;5073571;28;20407;-72
2023/04/10 01:57:37;;;;;;;1999.90;999.90;;;6.50;99.90;;;;;;5073728;28;20413;-72
2023/04/10 02:00:04;;;;;;;1999.90;999.90;;;6.30;99.90;;;;;;5073697;28;20419;-75
2023/04/10 02:02:33;;;;;;;1999.90;999.90;;;6.30;99.90;;;;;;5073248;28;20412;-73
2023/04/10 02:05:00;;;;;;;1999.90;999.90;;;6.40;99.90;;;;;;5063859;28;20429;-77
2023/04/10 02:07:45;;;;;;;1999.90;999.90;;;6.50;99.90;;;;;;5064266;28;20453;-75
2023/04/10 02:10:15;;;;;;;1999.90;999.90;;;6.60;99.90;;;;;;5071241;28;20845;-75
2023/04/10 02:12:49;;;;;;;1999.90;999.90;;;6.70;99.90;;;;;;5071098;28;20457;-75
2023/04/10 02:15:19;;;;;;;1999.90;999.90;;;7.00;99.90;;;;;;5071188;28;20403;-74
2023/04/10 02:17:48;;;;;;;1999.90;999.90;;;7.10;99.90;;;;;;5071051;28;20410;-71
2023/04/10 02:20:17;;;;;;;1999.90;999.90;;;7.00;99.90;;;;;;5061140;28;20456;-75
2023/04/10 02:22:44;;;;;;;1999.90;999.90;;;6.90;99.90;;;;;;5070810;28;20415;-75
2023/04/10 02:25:11;;;;;;;1999.90;999.90;;;6.70;99.90;;;;;;5072413;28;20412;-74
2023/04/10 02:27:40;;;;;;;1999.90;999.90;;;6.70;99.90;;;;;;5072835;28;20408;-74
2023/04/10 02:30:08;;;;;;;1999.90;999.90;;;6.60;99.90;;;;;;5072310;28;20407;-74
2023/04/10 02:32:35;;;;;;;1999.90;999.90;;;6.60;99.90;;;;;;5069614;28;20500;-75
2023/04/10 02:35:03;;;;;;;1999.90;999.90;;;6.50;99.90;;;;;;5070765;28;20959;-73
2023/04/10 02:37:31;;;;;;;1999.90;999.90;;;6.40;99.90;;;;;;5071008;28;20400;-73
2023/04/10 02:39:58;;;;;;;1999.90;999.90;;;6.40;99.90;;;;;;5071263;28;20416;-75
2023/04/10 02:42:25;;;;;;;1999.90;999.90;;;6.20;99.90;;;;;;5071463;28;20453;-75
2023/04/10 02:44:51;;;;;;;1999.90;999.90;;;6.10;99.90;;;;;;5070883;28;20462;-73
2023/04/10 02:47:18;;;;;;;1999.90;999.90;;;6.20;99.90;;;;;;5066541;28;20423;-74
2023/04/10 02:49:45;;;;;;;1999.90;999.90;;;6.30;99.90;;;;;;5064626;28;20422;-74
2023/04/10 02:52:13;;;;;;;1999.90;999.90;;;6.20;99.90;;;;;;5070758;28;20469;-74
2023/04/10 02:54:40;;;;;;;1999.90;999.90;;;6.20;99.90;;;;;;5063386;28;20425;-73
2023/04/10 02:57:06;;;;;;;1999.90;999.90;;;6.20;99.90;;;;;;5066736;28;20433;-74
2023/04/10 02:59:33;;;;;;;1999.90;999.90;;;6.30;99.90;;;;;;5070445;28;20407;-74
2023/04/10 03:02:00;;;;;;;1999.90;999.90;;;6.10;99.90;;;;;;5070370;28;20469;-73
2023/04/10 03:04:27;;;;;;;1999.90;999.90;;;6.10;99.90;;;;;;5070786;28;20414;-73
2023/04/10 03:06:54;;;;;;;1999.90;999.90;;;6.00;99.90;;;;;;5070594;28;20404;-74
2023/04/10 03:09:22;;;;;;;1999.90;999.90;;;6.00;99.90;;;;;;5069453;28;20406;-74
2023/04/10 03:11:49;;;;;;;1999.90;999.90;;;6.00;99.90;;;;;;5065203;28;20403;-74
2023/04/10 03:14:15;;;;;;;1999.90;999.90;;;6.10;99.90;;;;;;5070423;28;20476;-76
2023/04/10 03:16:42;;;;;;;1999.90;999.90;;;6.10;99.90;;;;;;5070202;28;20785;-75
2023/04/10 03:19:09;;;;;;;1999.90;999.90;;;6.00;99.90;;;;;;5070434;28;20457;-75
2023/04/10 03:21:35;;;;;;;1999.90;999.90;;;5.90;99.90;;;;;;5070354;28;20455;-74
2023/04/10 03:24:02;;;;;;;1999.90;999.90;;;5.90;99.90;;;;;;5069419;28;20804;-75
2023/04/10 03:26:30;;;;;;;1999.90;999.90;;;5.80;99.90;;;;;;5065253;28;20407;-74
2023/04/10 03:28:57;;;;;;;1999.90;999.90;;;5.90;99.90;;;;;;5074188;28;20411;-74
2023/04/10 03:31:24;;;;;;;1999.90;999.90;;;6.00;99.90;;;;;;5074285;28;20866;-74
2023/04/10 03:33:50;;;;;;;1999.90;999.90;;;6.10;99.90;;;;;;5074243;28;20909;-76
2023/04/10 03:36:17;;;;;;;1999.90;999.90;;;6.30;99.90;;;;;;5074286;28;20411;-75
2023/04/10 03:38:44;;;;;;;1999.90;999.90;;;6.40;99.90;;;;;;5066879;28;20464;-73
2023/04/10 03:41:10;;;;;;;1999.90;999.90;;;6.40;99.90;;;;;;5071676;28;20477;-73
2023/04/10 03:43:39;;;;;;;1999.90;999.90;;;6.50;99.90;;;;;;5073945;28;20415;-73
2023/04/10 03:46:06;;;;;;;1999.90;999.90;;;6.40;99.90;;;;;;5074097;28;20456;-73
2023/04/10 03:48:32;;;;;;;1999.90;999.90;;;6.40;99.90;;;;;;5074151;28;20453;-73
2023/04/10 03:50:59;;;;;;;1999.90;999.90;;;6.40;99.90;;;;;;5073887;28;20406;-72
2023/04/10 03:53:26;;;;;;;1999.90;999.90;;;6.40;99.90;;;;;;5068709;28;20486;-73
2023/04/10 03:55:52;;;;;;;1999.90;999.90;;;6.40;99.90;;;;;;5068863;28;20820;-73
2023/04/10 03:58:19;;;;;;;1999.90;999.90;;;6.40;99.90;;;;;;5073491;28;20403;-73
2023/04/10 04:00:47;;;;;;;1999.90;999.90;;;6.40;99.90;;;;;;5073440;28;20451;-73
2023/04/10 04:03:14;;;;;;;1999.90;999.90;;;6.50;99.90;;;;;;5073578;28;20513;-76
2023/04/10 04:05:41;;;;;;;1999.90;999.90;;;6.40;99.90;;;;;;5073401;28;20431;-76
2023/04/10 04:08:07;;;;;;;1999.90;999.90;;;6.40;99.90;;;;;;5063703;28;20433;-76
2023/04/10 04:10:34;;;;;;;1999.90;999.90;;;6.50;99.90;;;;;;5073078;28;20465;-76
2023/04/10 04:13:01;;;;;;;1999.90;999.90;;;6.40;99.90;;;;;;5073210;28;20435;-76
2023/04/10 04:15:27;;;;;;;1999.90;999.90;;;6.40;99.90;;;;;;5073388;28;20408;-75
2023/04/10 04:17:56;;;;;;;1999.90;999.90;;;6.30;99.90;;;;;;5073320;28;20818;-74
2023/04/10 04:20:23;;;;;;;1999.90;999.90;;;6.40;99.90;;;;;;5073019;28;20404;-74
2023/04/10 04:22:50;;;;;;;1999.90;999.90;;;6.30;99.90;;;;;;5064328;28;20432;-74
2023/04/10 04:25:18;;;;;;;1999.90;999.90;;;6.40;99.90;;;;;;5072172;28;20415;-73
2023/04/10 04:27:45;;;;;;;1999.90;999.90;;;6.30;99.90;;;;;;5073283;28;20901;-73
2023/04/10 04:30:12;;;;;;;1999.90;999.90;;;6.40;99.90;;;;;;5073059;28;20480;-76
2023/04/10 04:32:38;;;;;;;1999.90;999.90;;;6.30;99.90;;;;;;5073008;28;20461;-76
2023/04/10 04:35:07;;;;;;;1999.90;999.90;;;6.20;99.90;;;;;;5071488;28;20431;-75
2023/04/10 04:37:34;;;;;;;1999.90;999.90;;;6.20;99.90;;;;;;5065736;28;20931;-76
2023/04/10 04:40:01;;;;;;;1999.90;999.90;;;6.10;99.90;;;;;;5073330;28;20403;-76
2023/04/10 04:42:28;;;;;;;1999.90;999.90;;;6.00;99.90;;;;;;5072854;28;20430;-72
2023/04/10 04:44:54;;;;;;;1999.90;999.90;;;6.00;99.90;;;;;;5073249;28;20403;-74
2023/04/10 04:47:23;;;;;;;1999.90;999.90;;;5.90;99.90;;;;;;5073946;28;20395;-73
2023/04/10 04:49:49;;;;;;;1999.90;999.90;;;5.90;99.90;;;;;;5072748;28;20939;-76
2023/04/10 04:52:18;;;;;;;1999.90;999.90;;;5.90;99.90;;;;;;5065624;28;20407;-74
2023/04/10 04:54:44;;;;;;;1999.90;999.90;;;5.90;99.90;;;;;;5074451;28;20980;-74
2023/04/10 04:57:11;;;;;;;1999.90;999.90;;;5.90;99.90;;;;;;5074575;28;20410;-74
2023/04/10 04:59:38;;;;;;;1999.90;999.90;;;6.00;99.90;;;;;;5073831;28;20411;-74
2023/04/10 05:02:04;;;;;;;1999.90;999.90;;;6.10;99.90;;;;;;5073579;28;20423;-74
2023/04/10 05:04:31;;;;;;;1999.90;999.90;;;6.10;99.90;;;;;;5067480;28;20429;-74
2023/04/10 05:06:58;;;;;;;1999.90;999.90;;;6.00;99.90;;;;;;5068386;28;20411;-73
2023/04/10 05:09:26;;;;;;;1999.90;999.90;;;6.00;99.90;;;;;;5072501;28;20461;-77
2023/04/10 05:11:53;;;;;;;1999.90;999.90;;;6.00;99.90;;;;;;5071358;28;20399;-74
2023/04/10 05:14:20;;;;;;;1999.90;999.90;;;6.10;99.90;;;;;;5064029;28;20434;-73
2023/04/10 05:16:47;;;;;;;1999.90;999.90;;;6.10;99.90;;;;;;5072478;28;20423;-75
2023/04/10 05:19:13;;;;;;;1999.90;999.90;;;6.20;99.90;;;;;;5073010;28;20399;-75
2023/04/10 05:21:40;;;;;;;1999.90;999.90;;;6.20;99.90;;;;;;5073564;28;20434;-73
2023/04/10 05:24:08;;;;;;;1999.90;999.90;;;6.20;99.90;;;;;;5071399;28;20937;-74
2023/04/10 05:26:36;;;;;;;1999.90;999.90;;;6.40;99.90;;;;;;5072901;28;20407;-76
2023/04/10 05:29:02;;;;;;;1999.90;999.90;;;6.60;99.90;;;;;;5072630;28;20479;-74
2023/04/10 05:31:29;;;;;;;1999.90;999.90;;;6.70;99.90;;;;;;5072330;28;20445;-73
2023/04/10 05:33:56;;;;;;;1999.90;999.90;;;6.80;99.90;;;;;;5072123;28;20503;-76
2023/04/10 05:36:22;;;;;;;1999.90;999.90;;;6.90;99.90;;;;;;5071733;28;20453;-73
2023/04/10 05:38:49;;;;;;;1999.90;999.90;;;6.90;99.90;;;;;;5062996;28;20525;-73
2023/04/10 05:41:16;;;;;;;1999.90;999.90;;;6.60;99.90;;;;;;5071834;28;20664;-73
2023/04/10 05:43:44;;;;;;;1999.90;999.90;;;6.70;99.90;;;;;;5073027;28;20411;-75
2023/04/10 05:46:11;;;;;;;1999.90;999.90;;;6.60;99.90;;;;;;5072811;28;20415;-72
2023/04/10 05:48:38;;;;;;;1999.90;999.90;;;6.80;99.90;;;;;;5072076;28;20498;-73
2023/04/10 05:51:05;;;;;;;1999.90;999.90;;;7.30;99.90;;;;;;5072550;28;20431;-74
2023/04/10 05:53:32;;;;;;;1999.90;999.90;;;7.60;99.90;;;;;;5067244;28;20433;-73
2023/04/10 05:56:00;;;;;;;1999.90;999.90;;;7.90;99.90;;;;;;5068621;28;20882;-76
2023/04/10 05:58:28;;;;;;;1999.90;999.90;;;8.10;99.90;;;;;;5072438;28;20407;-73
2023/04/10 06:00:57;;;;;;;1999.90;999.90;;;7.90;99.90;;;;;;5072738;28;20412;-70
2023/04/10 06:03:26;;;;;;;1999.90;999.90;;;8.00;99.90;;;;;;5073031;28;20437;-76
2023/04/10 06:05:52;;;;;;;1999.90;999.90;;;8.20;99.90;;;;;;5073224;28;20411;-75
2023/04/10 06:08:19;;;;;;;1999.90;999.90;;;8.40;99.90;;;;;;5066377;28;20477;-75
2023/04/10 06:10:46;;;;;;;1999.90;999.90;;;8.80;99.90;;;;;;5066837;28;20407;-75
2023/04/10 06:13:13;;;;;;;1999.90;999.90;;;9.40;99.90;;;;;;5072664;28;20897;-74
2023/04/10 06:15:40;;;;;;;1999.90;999.90;;;9.80;99.90;;;;;;5071284;28;20457;-74
2023/04/10 06:18:08;;;;;;;1999.90;999.90;;;10.10;99.90;;;;;;5071265;28;20411;-72
2023/04/10 06:20:35;;;;;;;1999.90;999.90;;;10.30;99.90;;;;;;5070946;28;20403;-73
2023/04/10 06:23:02;;;;;;;1999.90;999.90;;;10.50;99.90;;;;;;5067427;28;20473;-74
2023/04/10 06:25:29;;;;;;;1999.90;999.90;;;10.50;99.90;;;;;;5062920;28;20812;-73
2023/04/10 06:27:55;;;;;;;1999.90;999.90;;;10.60;99.90;;;;;;5070933;28;20407;-75
2023/04/10 06:30:22;;;;;;;1999.90;999.90;;;10.80;99.90;;;;;;5070617;28;20412;-73
2023/04/10 06:32:49;;;;;;;1999.90;999.90;;;10.90;99.90;;;;;;5071007;28;20809;-72
2023/04/10 06:35:17;;;;;;;1999.90;999.90;;;11.00;99.90;;;;;;5070687;28;20407;-73
2023/04/10 06:37:43;;;;;;;1999.90;999.90;;;11.10;99.90;;;;;;5069979;28;20831;-73
2023/04/10 06:40:11;;;;;;;1999.90;999.90;;;11.20;99.90;;;;;;5070492;28;20484;-74
2023/04/10 06:42:38;;;;;;;1999.90;999.90;;;11.30;99.90;;;;;;5070665;28;20477;-73
2023/04/10 06:45:05;;;;;;;1999.90;999.90;;;11.50;99.90;;;;;;5070557;28;20403;-73
2023/04/10 06:47:32;;;;;;;1999.90;999.90;;;11.70;99.90;;;;;;5071051;28;20425;-73
2023/04/10 06:49:59;;;;;;;1999.90;999.90;;;11.80;99.90;;;;;;5070535;28;20411;-74
2023/04/10 06:52:27;;;;;;;1999.90;999.90;;;11.80;99.90;;;;;;5068572;28;20481;-73
2023/04/10 06:54:53;;;;;;;1999.90;999.90;;;11.90;99.90;;;;;;5062224;28;20407;-73
2023/04/10 06:57:20;;;;;;;1999.90;999.90;;;12.00;99.90;;;;;;5070550;28;20457;-73
2023/04/10 06:59:47;;;;;;;1999.90;999.90;;;12.10;99.90;;;;;;5069748;28;20400;-73
2023/04/10 07:02:13;;;;;;;1999.90;999.90;;;12.20;99.90;;;;;;5070651;28;20473;-72
2023/04/10 07:04:40;;;;;;;1999.90;999.90;;;12.20;99.90;;;;;;5070569;28;20400;-72
2023/04/10 07:07:08;;;;;;;1999.90;999.90;;;12.00;99.90;;;;;;5060352;28;20432;-72
2023/04/10 07:09:36;;;;;;;1999.90;999.90;;;12.00;99.90;;;;;;5063565;28;20437;-72
2023/04/10 07:12:03;;;;;;;1999.90;999.90;;;11.70;99.90;;;;;;5070591;28;20403;-73
2023/04/10 07:14:31;;;;;;;1999.90;999.90;;;11.50;99.90;;;;;;5070614;28;20407;-73
2023/04/10 07:16:58;;;;;;;1999.90;999.90;;;11.50;99.90;;;;;;5070436;28;20407;-75
2023/04/10 07:19:25;;;;;;;1999.90;999.90;;;11.50;99.90;;;;;;5070390;28;20407;-73
2023/04/10 07:21:51;;;;;;;1999.90;999.90;;;11.60;99.90;;;;;;5061048;28;20428;-73
2023/04/10 07:24:18;;;;;;;1999.90;999.90;;;12.00;99.90;;;;;;5061126;28;20451;-73
2023/04/10 07:26:46;;;;;;;1999.90;999.90;;;12.40;99.90;;;;;;5070144;28;20404;-74
2023/04/10 07:29:14;;;;;;;1999.90;999.90;;;12.20;99.90;;;;;;5070348;28;20410;-74
2023/04/10 07:31:41;;;;;;;1999.90;999.90;;;12.30;99.90;;;;;;5070346;28;20445;-73
2023/04/10 07:34:08;;;;;;;1999.90;999.90;;;12.30;99.90;;;;;;5059526;28;20435;-73
2023/04/10 07:36:35;;;;;;;1999.90;999.90;;;12.30;99.90;;;;;;5070147;28;20449;-73
2023/04/10 07:39:02;;;;;;;1999.90;999.90;;;12.40;99.90;;;;;;5068957;28;20403;-72
2023/04/10 07:41:28;;;;;;;1999.90;999.90;;;12.30;99.90;;;;;;5068683;28;20415;-73
2023/04/10 07:43:56;;;;;;;1999.90;999.90;;;12.40;99.90;;;;;;5070109;28;20408;-73
2023/04/10 07:46:23;;;;;;;1999.90;999.90;;;12.50;99.90;;;;;;5070188;28;20457;-72
2023/04/10 07:48:50;;;;;;;1999.90;999.90;;;12.60;99.90;;;;;;5070192;28;20828;-73
2023/04/10 07:51:16;;;;;;;1999.90;999.90;;;12.50;99.90;;;;;;5070147;28;20407;-72
2023/04/10 07:53:43;;;;;;;1999.90;999.90;;;12.50;99.90;;;;;;5063124;28;20425;-72
2023/04/10 07:56:16;;;;;;;1999.90;999.90;;;12.50;99.90;;;;;;5067759;28;20411;-72
2023/04/10 07:58:42;;;;;;;1999.90;999.90;;;12.40;99.90;;;;;;5070546;28;20407;-74
2023/04/10 08:01:10;;;;;;;1999.90;999.90;;;12.40;99.90;;;;;;5069976;28;20399;-72
2023/04/10 08:03:41;;;;;;;1999.90;999.90;;;12.50;99.90;;;;;;5069790;28;20420;-73
2023/04/10 08:06:09;;;;;;;1999.90;999.90;;;12.60;99.90;;;;;;5060371;28;20923;-73
2023/04/10 08:08:36;;;;;;;1999.90;999.90;;;12.70;99.90;;;;;;5069888;28;20407;-73
2023/04/10 08:11:03;;;;;;;1999.90;999.90;;;13.00;99.90;;;;;;5070803;28;20408;-73
2023/04/10 08:13:30;;;;;;;1999.90;999.90;;;13.30;99.90;;;;;;5073694;28;20396;-73
2023/04/10 08:15:56;;;;;;;1999.90;999.90;;;13.40;99.90;;;;;;5073516;28;20765;-73
2023/04/10 08:18:24;;;;;;;1999.90;999.90;;;13.30;99.90;;;;;;5073183;28;20434;-72
2023/04/10 08:20:51;;;;;;;1999.90;999.90;;;13.20;99.90;;;;;;5073130;28;20820;-72
2023/04/10 08:23:17;;;;;;;1999.90;999.90;;;13.30;99.90;;;;;;5073248;28;20481;-73
2023/04/10 08:25:45;;;;;;;1999.90;999.90;;;13.50;99.90;;;;;;5072520;28;20431;-74
2023/04/10 08:28:11;;;;;;;1999.90;999.90;;;13.50;99.90;;;;;;5065311;28;20408;-73
2023/04/10 08:30:38;;;;;;;1999.90;999.90;;;13.50;99.90;;;;;;5073166;28;20429;-73
2023/04/10 08:33:04;;;;;;;1999.90;999.90;;;13.60;99.90;;;;;;5073244;28;20407;-73
2023/04/10 08:35:32;;;;;;;1999.90;999.90;;;13.80;99.90;;;;;;5067808;28;20948;-73
2023/04/10 08:37:59;;;;;;;1999.90;999.90;;;14.00;99.90;;;;;;5069282;28;20437;-73
2023/04/10 08:40:26;;;;;;;1999.90;999.90;;;14.20;99.90;;;;;;5073376;28;20407;-73
2023/04/10 08:42:52;;;;;;;1999.90;999.90;;;14.20;99.90;;;;;;5068430;28;20517;-72
2023/04/10 08:45:19;;;;;;;1999.90;999.90;;;14.50;99.90;;;;;;5072390;28;20400;-73
2023/04/10 08:47:50;;;;;;;1999.90;999.90;;;14.70;99.90;;;;;;5073064;28;20409;-72
2023/04/10 08:50:18;;;;;;;1999.90;999.90;;;14.80;97.50;;;;;;5072537;28;20464;-73
2023/04/10 08:52:50;;;;;;;1999.90;999.90;;;15.20;97.30;;;;;;5072924;28;20479;-73
2023/04/10 08:55:18;;;;;;;1999.90;999.90;;;15.40;96.50;;;;;;5072803;28;20464;-73
2023/04/10 08:57:45;;;;;;;1999.90;999.90;;;15.40;96.30;;;;;;5072990;28;20812;-73
2023/04/10 09:00:13;;;;;;;1999.90;999.90;;;15.70;94.90;;;;;;5072937;28;20492;-73
2023/04/10 09:02:40;;;;;;;1999.90;999.90;;;15.80;94.10;;;;;;5072791;28;20420;-72
2023/04/10 09:05:10;;;;;;;1999.90;999.90;;;16.00;94.00;;;;;;5070761;28;20411;-73
2023/04/10 09:07:37;;;;;;;1999.90;999.90;;;16.00;93.90;;;;;;5066203;28;20430;-73
2023/04/10 09:10:06;;;;;;;1999.90;999.90;;;16.10;94.00;;;;;;5072671;28;20464;-73
2023/04/10 09:12:44;;;;;;;1999.90;999.90;;;16.00;94.30;;;;;;5072662;28;20862;-70
2023/04/10 09:15:11;;;;;;;1999.90;999.90;;;16.20;94.10;;;;;;5072410;28;20942;-72
2023/04/10 09:17:38;;;;;;;1999.90;999.90;;;16.10;93.70;;;;;;5072964;28;20411;-73
2023/04/10 09:20:21;;;;;;;1999.90;999.90;;;16.20;93.50;;;;;;5063328;28;20425;-72
2023/04/10 09:22:47;;;;;;;1999.90;999.90;;;16.20;94.30;;;;;;5071201;28;20487;-72
2023/04/10 09:25:33;;;;;;;1999.90;999.90;;;16.20;94.20;;;;;;5072510;28;20403;-72
2023/04/10 09:28:01;;;;;;;1999.90;999.90;;;16.50;93.50;;;;;;5072399;28;20406;-73
2023/04/10 09:30:36;;;;;;;1999.90;999.90;;;16.60;93.30;;;;;;5072384;28;20416;-74
2023/04/10 09:33:02;;;;;;;1999.90;999.90;;;16.70;93.00;;;;;;5072553;28;20395;-72
2023/04/10 09:35:37;;;;;;;1999.90;999.90;;;16.70;93.10;;;;;;5071103;28;20420;-72
2023/04/10 09:38:15;;;;;;;1999.90;999.90;;;16.70;92.50;;;;;;5071991;28;20943;-73
2023/04/10 09:40:44;;;;;;;1999.90;999.90;;;16.70;93.20;;;;;;5072189;28;20747;-71
2023/04/10 09:43:22;;;;;;;1999.90;999.90;;;16.80;93.40;;;;;;5072403;28;20419;-72
2023/04/10 09:45:50;;;;;;;1999.90;999.90;;;17.10;92.80;;;;;;5072287;28;20490;-71
2023/04/10 09:48:17;;;;;;;1999.90;999.90;;;17.20;92.00;;;;;;5069100;28;20909;-71
2023/04/10 09:50:44;;;;;;;1999.90;999.90;;;16.90;91.30;;;;;;5058761;28;20593;-71
2023/04/10 09:53:13;;;;;;;1999.90;999.90;;;17.00;91.60;;;;;;5071919;28;20411;-72
2023/04/10 09:55:43;;;;;;;1999.90;999.90;;;16.90;92.00;;;;;;5071803;28;20404;-72
2023/04/10 09:58:10;;;;;;;1999.90;999.90;;;16.70;92.20;;;;;;5071817;28;20407;-71
2023/04/10 10:00:40;;;;;;;1999.90;999.90;;;16.70;92.30;;;;;;5071544;28;20400;-71
2023/04/10 10:03:09;;;;;;;1999.90;999.90;;;16.30;93.10;;;;;;5070485;28;20430;-72
2023/04/10 10:05:39;;;;;;;1999.90;999.90;;;16.40;93.00;;;;;;5070999;28;20414;-72
2023/04/10 10:08:06;;;;;;;1999.90;999.90;;;16.60;92.70;;;;;;5070753;28;20424;-71
2023/04/10 10:10:33;;;;;;;1999.90;999.90;;;16.80;92.60;;;;;;5065949;28;20899;-72
2023/04/10 10:13:03;;;;;;;1999.90;999.90;;;16.90;92.40;;;;;;5067501;28;20407;-71
2023/04/10 10:15:35;;;;;;;1999.90;999.90;;;17.00;91.70;;;;;;5071269;28;20426;-72
2023/04/10 10:18:07;;;;;;;1999.90;999.90;;;16.80;91.60;;;;;;5071627;28;20433;-72
2023/04/10 10:20:37;;;;;;;1999.90;999.90;;;16.90;91.80;;;;;;5061883;28;20427;-72
2023/04/10 10:23:04;;;;;;;1999.90;999.90;;;17.00;92.10;;;;;;5071038;28;20423;-72
2023/04/10 10:25:31;;;;;;;1999.90;999.90;;;17.00;92.10;;;;;;5071558;28;20796;-72
2023/04/10 10:28:02;;;;;;;1999.90;999.90;;;17.00;91.40;;;;;;5070907;28;20408;-71
2023/04/10 10:30:30;;;;;;;1999.90;999.90;;;17.10;92.10;;;;;;5070987;28;20415;-72
2023/04/10 10:32:58;;;;;;;1999.90;999.90;;;17.10;92.60;;;;;;5070897;28;20866;-72
2023/04/10 10:35:26;;;;;;;1999.90;999.90;;;17.30;91.80;;;;;;5061074;28;20522;-72
2023/04/10 10:37:53;;;;;;;1999.90;999.90;;;17.50;91.10;;;;;;5070812;28;20492;-72
2023/04/10 10:40:24;;;;;;;1999.90;999.90;;;17.60;91.10;;;;;;5070555;28;21091;-71
2023/04/10 10:43:00;;;;;;;1999.90;999.90;;;17.30;90.40;;;;;;5070986;28;20421;-71
2023/04/10 10:45:34;;;;;;;1999.90;999.90;;;17.20;91.20;;;;;;5070792;28;20412;-72
2023/04/10 10:48:01;;;;;;;1999.90;999.90;;;17.10;90.80;;;;;;5067668;28;20512;-72
2023/04/10 10:50:51;;;;;;;1999.90;999.90;;;17.10;91.50;;;;;;5062168;28;20469;-72
2023/04/10 10:53:32;;;;;;;1999.90;999.90;;;17.30;91.40;;;;;;5070813;28;20431;-72
2023/04/10 10:55:58;;;;;;;1999.90;999.90;;;17.30;91.10;;;;;;5070585;28;20403;-72
2023/04/10 10:58:46;;;;;;;1999.90;999.90;;;17.30;90.60;;;;;;5070664;28;20465;-71
2023/04/10 11:01:14;;;;;;;1999.90;999.90;;;17.30;90.80;;;;;;5070186;28;20858;-72
2023/04/10 11:03:43;;;;;;;1999.90;999.90;;;17.40;90.70;;;;;;5063641;28;20508;-72
2023/04/10 11:06:12;;;;;;;1999.90;999.90;;;17.50;91.10;;;;;;5067886;28;20835;-73
2023/04/10 11:08:42;;;;;;;1999.90;999.90;;;17.70;90.90;;;;;;5070639;28;20924;-71
2023/04/10 11:11:11;;;;;;;1999.90;999.90;;;17.70;90.40;;;;;;5070593;28;20407;-68
2023/04/10 11:13:40;;;;;;;1999.90;999.90;;;17.60;90.90;;;;;;5070412;28;20474;-72
2023/04/10 11:16:10;;;;;;;1999.90;999.90;;;17.70;91.40;;;;;;5070477;28;20415;-70
2023/04/10 11:19:03;;;;;;;1999.90;999.90;;;18.20;90.80;;;;;;5069872;28;20812;-73
2023/04/10 11:21:31;;;;;;;1999.90;999.90;;;17.80;89.80;;;;;;5050278;28;20410;-72
2023/04/10 11:24:05;;;;;;;1999.90;999.90;;;17.70;90.80;;;;;;5050134;28;20471;-72
2023/04/10 11:26:38;;;;;;;1999.90;999.90;;;17.70;90.30;;;;;;5049484;28;21488;-72
2023/04/10 11:29:05;;;;;;;1999.90;999.90;;;18.00;91.50;;;;;;5050272;28;20409;-73
2023/04/10 11:31:33;;;;;;;1999.90;999.90;;;18.00;90.20;;;;;;5056973;28;20421;-73
2023/04/10 11:34:06;;;;;;;1999.90;999.90;;;17.80;88.50;;;;;;5057900;28;20430;-73
2023/04/10 11:36:34;;;;;;;1999.90;999.90;;;17.50;89.70;;;;;;5062868;28;20411;-71
2023/04/10 11:39:04;;;;;;;1999.90;999.90;;;17.50;90.20;;;;;;5070552;28;20410;-71
2023/04/10 11:41:33;;;;;;;1999.90;999.90;;;17.50;88.10;;;;;;5070761;28;20457;-72
2023/04/10 11:44:01;;;;;;;1999.90;999.90;;;17.50;89.80;;;;;;5070093;28;20428;-72
2023/04/10 11:46:28;;;;;;;1999.90;999.90;;;17.60;87.60;;;;;;5070191;28;20430;-72
2023/04/10 11:48:57;;;;;;;1999.90;999.90;;;17.70;87.40;;;;;;5065430;28;20412;-72
2023/04/10 11:51:26;;;;;;;1999.90;999.90;;;17.60;86.20;;;;;;5073782;28;20411;-72
2023/04/10 11:54:05;;;;;;;1999.90;999.90;;;17.90;86.70;;;;;;5074069;28;20477;-72
2023/04/10 11:56:31;;;;;;;1999.90;999.90;;;18.00;84.80;;;;;;5073998;28;20413;-72
2023/04/10 11:58:58;;;;;;;1999.90;999.90;;;18.00;85.20;;;;;;5073770;28;20407;-72
2023/04/10 12:01:25;;;;;;;1999.90;999.90;;;18.10;87.00;;;;;;5069406;28;20472;-72
2023/04/10 12:03:51;;;;;;;1999.90;999.90;;;18.00;84.70;;;;;;5068596;28;20481;-72
2023/04/10 12:06:19;;;;;;;1999.90;999.90;;;18.00;84.10;;;;;;5071401;28;20545;-71
2023/04/10 12:08:49;;;;;;;1999.90;999.90;;;18.00;85.50;;;;;;5073768;28;20407;-71